Time;durP1;ratioP1;P1;durP2;ratioP2;P2;SDS_P1;SDS_P2;PMS_P1;PMS_P2;Temp;Humidity;BMP_temperature;BMP_pressure;BME280_temperature;BME280_humidity;BME280_pressure;Samples;Min_cycle;Max_cycle;Signal;HPM_P1;HPM_P2
2022/09/13 00:00:03;;;;;;;10.27;8.25;;;;;;;;;;5014840;28;20576;-70
2022/09/13 00:02:28;;;;;;;10.80;9.20;;;;;;;;;;5004289;28;20519;-70
2022/09/13 00:04:54;;;;;;;12.50;9.27;;;;;;;;;;5012448;28;20179;-70
2022/09/13 00:07:19;;;;;;;11.20;9.45;;;;;;;;;;5020489;28;20409;-71
2022/09/13 00:09:44;;;;;;;9.35;8.43;;;;;;;;;;5024882;28;20185;-71
2022/09/13 00:12:10;;;;;;;9.13;7.72;;;;;;;;;;5014046;28;20258;-70
2022/09/13 00:14:35;;;;;;;11.27;9.73;;;;;;;;;;5018392;28;20253;-70
2022/09/13 00:17:00;;;;;;;9.73;8.50;;;;;;;;;;5008073;28;20424;-70
2022/09/13 00:19:25;;;;;;;14.83;10.07;;;;;;;;;;5006410;28;20804;-71
2022/09/13 00:21:50;;;;;;;10.10;7.55;;;;;;;;;;5019618;28;20424;-71
2022/09/13 00:24:16;;;;;;;10.00;8.15;;;;;;;;;;5017412;28;20214;-70
2022/09/13 00:26:41;;;;;;;9.45;8.50;;;;;;;;;;5010697;28;20534;-70
2022/09/13 00:29:06;;;;;;;10.20;8.95;;;;;;;;;;5002552;28;20184;-71
2022/09/13 00:31:31;;;;;;;10.43;8.25;;;;;;;;;;4996038;28;20696;-70
2022/09/13 00:33:59;;;;;;;10.00;8.90;;;;;;;;;;5007621;28;20179;-71
2022/09/13 00:36:25;;;;;;;12.52;10.07;;;;;;;;;;5005605;28;20478;-70
2022/09/13 00:38:50;;;;;;;8.40;7.05;;;;;;;;;;5009337;28;20973;-71
2022/09/13 00:41:17;;;;;;;9.70;7.23;;;;;;;;;;5010799;28;20191;-71
2022/09/13 00:43:44;;;;;;;10.05;8.98;;;;;;;;;;5014297;28;20550;-70
2022/09/13 00:46:12;;;;;;;8.30;7.50;;;;;;;;;;5016697;28;20183;-71
2022/09/13 00:48:37;;;;;;;8.35;7.30;;;;;;;;;;5017278;28;20270;-71
2022/09/13 00:51:04;;;;;;;11.32;8.32;;;;;;;;;;5008823;28;20657;-71
2022/09/13 00:53:31;;;;;;;10.82;9.00;;;;;;;;;;5009392;28;20509;-71
2022/09/13 00:56:01;;;;;;;9.50;7.97;;;;;;;;;;5014847;28;20187;-70
2022/09/13 00:58:30;;;;;;;9.98;8.98;;;;;;;;;;5004177;28;20199;-70
2022/09/13 01:00:58;;;;;;;11.70;9.00;;;;;;;;;;5014353;28;20260;-70
2022/09/13 01:03:25;;;;;;;10.73;8.25;;;;;;;;;;5010762;28;20616;-71
2022/09/13 01:05:58;;;;;;;10.55;8.88;;;;;;;;;;5021852;28;20273;-71
2022/09/13 01:08:24;;;;;;;11.15;9.15;;;;;;;;;;5010415;28;20179;-70
2022/09/13 01:10:50;;;;;;;10.85;8.55;;;;;;;;;;5008709;28;20221;-69
2022/09/13 01:13:18;;;;;;;11.80;9.73;;;;;;;;;;5008312;28;20311;-71
2022/09/13 01:15:43;;;;;;;11.40;9.18;;;;;;;;;;5007774;28;20197;-71
2022/09/13 01:18:09;;;;;;;11.00;9.07;;;;;;;;;;5020106;28;20187;-71
2022/09/13 01:20:57;;;;;;;10.25;8.60;;;;;;;;;;5026126;28;20237;-70
2022/09/13 01:23:31;;;;;;;9.65;8.30;;;;;;;;;;5009229;28;20221;-70
2022/09/13 01:25:59;;;;;;;13.30;10.50;;;;;;;;;;5015334;28;20187;-70
2022/09/13 01:28:27;;;;;;;12.98;10.40;;;;;;;;;;4998706;28;20658;-71
2022/09/13 01:31:00;;;;;;;13.60;10.45;;;;;;;;;;5004673;28;20211;-71
2022/09/13 01:33:32;;;;;;;12.65;11.10;;;;;;;;;;5011515;28;20178;-71
2022/09/13 01:36:00;;;;;;;14.90;10.77;;;;;;;;;;5010039;28;20249;-72
2022/09/13 01:38:28;;;;;;;13.43;10.88;;;;;;;;;;5010021;28;20191;-71
2022/09/13 01:40:53;;;;;;;15.48;11.88;;;;;;;;;;5002942;28;20210;-71
2022/09/13 01:43:21;;;;;;;13.00;11.05;;;;;;;;;;5018181;28;20202;-71
2022/09/13 01:45:47;;;;;;;13.77;12.20;;;;;;;;;;5012666;28;20435;-71
2022/09/13 01:48:32;;;;;;;11.77;10.55;;;;;;;;;;5004286;28;20178;-70
2022/09/13 01:51:00;;;;;;;13.35;10.63;;;;;;;;;;5001606;28;20207;-70
2022/09/13 01:53:44;;;;;;;12.68;10.73;;;;;;;;;;5004990;28;20179;-70
2022/09/13 01:56:11;;;;;;;14.68;12.32;;;;;;;;;;5010607;28;20178;-71
2022/09/13 01:58:45;;;;;;;14.63;11.18;;;;;;;;;;5019807;28;20174;-71
2022/09/13 02:01:17;;;;;;;13.65;11.38;;;;;;;;;;5011332;28;20203;-71
2022/09/13 02:03:42;;;;;;;15.20;12.40;;;;;;;;;;5010963;28;20199;-71
2022/09/13 02:06:10;;;;;;;16.37;12.23;;;;;;;;;;5009655;28;20183;-70
2022/09/13 02:08:39;;;;;;;15.65;12.20;;;;;;;;;;4998463;28;20457;-70
2022/09/13 02:11:09;;;;;;;14.98;12.05;;;;;;;;;;5003731;28;20212;-70
2022/09/13 02:13:36;;;;;;;13.73;11.65;;;;;;;;;;5012980;28;20562;-70
2022/09/13 02:16:05;;;;;;;17.00;13.18;;;;;;;;;;5011278;28;20751;-70
2022/09/13 02:18:33;;;;;;;14.63;13.05;;;;;;;;;;5013026;28;20268;-71
2022/09/13 02:21:01;;;;;;;14.63;11.77;;;;;;;;;;5021965;28;20481;-70
2022/09/13 02:23:34;;;;;;;17.00;13.00;;;;;;;;;;5026707;28;20203;-70
2022/09/13 02:26:01;;;;;;;18.83;13.93;;;;;;;;;;5004180;28;20206;-70
2022/09/13 02:28:29;;;;;;;18.77;13.85;;;;;;;;;;5013407;28;20671;-69
2022/09/13 02:30:56;;;;;;;17.80;13.20;;;;;;;;;;5012800;28;20297;-69
2022/09/13 02:33:24;;;;;;;15.65;12.60;;;;;;;;;;5017647;28;20217;-68
2022/09/13 02:35:52;;;;;;;15.70;12.30;;;;;;;;;;5019743;28;20211;-69
2022/09/13 02:38:29;;;;;;;15.00;12.88;;;;;;;;;;5017376;28;20179;-69
2022/09/13 02:40:57;;;;;;;17.80;14.50;;;;;;;;;;5006549;28;20202;-69
2022/09/13 02:43:26;;;;;;;17.05;12.82;;;;;;;;;;5004517;28;20207;-69
2022/09/13 02:46:10;;;;;;;16.92;14.18;;;;;;;;;;5010612;28;20538;-69
2022/09/13 02:48:48;;;;;;;16.88;13.88;;;;;;;;;;5020811;28;20677;-69
2022/09/13 02:51:21;;;;;;;17.40;13.65;;;;;;;;;;5015605;28;20207;-69
2022/09/13 02:53:59;;;;;;;16.00;13.55;;;;;;;;;;5018145;28;20236;-70
2022/09/13 02:56:43;;;;;;;17.17;13.82;;;;;;;;;;5015848;28;20189;-69
2022/09/13 02:59:16;;;;;;;19.15;14.77;;;;;;;;;;5013338;28;20799;-69
2022/09/13 03:01:45;;;;;;;19.63;13.90;;;;;;;;;;4990712;28;20203;-69
2022/09/13 03:04:11;;;;;;;18.02;14.43;;;;;;;;;;5021706;28;20320;-69
2022/09/13 03:06:36;;;;;;;18.85;14.05;;;;;;;;;;5012783;28;20273;-70
2022/09/13 03:09:03;;;;;;;17.02;13.38;;;;;;;;;;5012457;28;20183;-68
2022/09/13 03:11:35;;;;;;;18.33;14.65;;;;;;;;;;5013051;28;20295;-69
2022/09/13 03:14:16;;;;;;;20.95;16.40;;;;;;;;;;5020124;28;20233;-69
2022/09/13 03:16:59;;;;;;;24.13;16.13;;;;;;;;;;5003352;28;20175;-69
2022/09/13 03:19:35;;;;;;;20.13;15.10;;;;;;;;;;5010190;28;20187;-69
2022/09/13 03:22:00;;;;;;;16.67;14.23;;;;;;;;;;5013745;28;20672;-70
2022/09/13 03:24:31;;;;;;;18.90;15.43;;;;;;;;;;5012110;28;20217;-70
2022/09/13 03:26:59;;;;;;;13.25;11.70;;;;;;;;;;5011690;28;20834;-69
2022/09/13 03:29:28;;;;;;;17.48;14.05;;;;;;;;;;5009437;28;20171;-69
2022/09/13 03:32:04;;;;;;;16.83;13.77;;;;;;;;;;5016994;28;20210;-69
2022/09/13 03:34:39;;;;;;;19.63;15.10;;;;;;;;;;5001404;28;20549;-69
2022/09/13 03:37:12;;;;;;;20.73;15.73;;;;;;;;;;5007966;28;20182;-67
2022/09/13 03:39:55;;;;;;;17.90;15.18;;;;;;;;;;5013104;28;20707;-69
2022/09/13 03:42:23;;;;;;;23.98;17.85;;;;;;;;;;5011107;28;20194;-69
2022/09/13 03:44:50;;;;;;;16.42;14.63;;;;;;;;;;5015287;28;20194;-69
2022/09/13 03:47:16;;;;;;;18.17;14.88;;;;;;;;;;5016769;28;20179;-69
2022/09/13 03:49:43;;;;;;;21.50;15.52;;;;;;;;;;5013697;28;20554;-70
2022/09/13 03:52:08;;;;;;;19.60;14.27;;;;;;;;;;4998172;28;20676;-69
2022/09/13 03:54:36;;;;;;;20.63;17.02;;;;;;;;;;5008335;28;20187;-69
2022/09/13 03:57:04;;;;;;;19.20;15.57;;;;;;;;;;5011225;28;20185;-69
2022/09/13 03:59:30;;;;;;;23.23;15.18;;;;;;;;;;5019418;28;20179;-69
2022/09/13 04:01:55;;;;;;;15.07;11.75;;;;;;;;;;5011853;28;20724;-68
2022/09/13 04:04:20;;;;;;;13.75;12.25;;;;;;;;;;5012484;28;20226;-69
2022/09/13 04:06:45;;;;;;;17.73;14.23;;;;;;;;;;5012248;28;20557;-69
2022/09/13 04:09:11;;;;;;;20.67;15.80;;;;;;;;;;5002803;28;20185;-69
2022/09/13 04:11:36;;;;;;;19.43;15.30;;;;;;;;;;5012367;28;20468;-70
2022/09/13 04:14:02;;;;;;;22.48;16.63;;;;;;;;;;5013501;28;20425;-70
2022/09/13 04:16:27;;;;;;;20.55;15.98;;;;;;;;;;4998449;28;20182;-69
2022/09/13 04:18:52;;;;;;;20.52;16.98;;;;;;;;;;5013754;28;20183;-70
2022/09/13 04:21:18;;;;;;;23.07;16.17;;;;;;;;;;5011009;28;20207;-70
2022/09/13 04:23:43;;;;;;;19.53;15.67;;;;;;;;;;5010932;28;20467;-69
2022/09/13 04:26:08;;;;;;;21.77;16.38;;;;;;;;;;5002059;28;20420;-70
2022/09/13 04:28:34;;;;;;;21.45;17.15;;;;;;;;;;5010695;28;20257;-69
2022/09/13 04:30:59;;;;;;;24.65;16.48;;;;;;;;;;4994971;28;20202;-69
2022/09/13 04:33:24;;;;;;;20.17;15.17;;;;;;;;;;5012360;28;20566;-70
2022/09/13 04:35:53;;;;;;;18.70;15.45;;;;;;;;;;5012909;28;20443;-70
2022/09/13 04:38:18;;;;;;;22.13;17.10;;;;;;;;;;5011176;28;20228;-70
2022/09/13 04:40:43;;;;;;;20.58;16.45;;;;;;;;;;5005289;28;20206;-69
2022/09/13 04:43:08;;;;;;;22.93;17.90;;;;;;;;;;5002775;28;20294;-70
2022/09/13 04:45:34;;;;;;;21.45;17.65;;;;;;;;;;5011198;28;20424;-69
2022/09/13 04:47:59;;;;;;;28.20;19.58;;;;;;;;;;5009462;28;20167;-70
2022/09/13 04:50:24;;;;;;;23.58;19.42;;;;;;;;;;5010696;28;20194;-72
2022/09/13 04:52:50;;;;;;;21.75;17.25;;;;;;;;;;5010440;28;20181;-69
2022/09/13 04:55:16;;;;;;;26.65;19.17;;;;;;;;;;5012369;28;20183;-69
2022/09/13 04:57:41;;;;;;;22.27;16.67;;;;;;;;;;5014986;28;20707;-70
2022/09/13 05:00:07;;;;;;;22.33;18.15;;;;;;;;;;5003054;28;20203;-69
2022/09/13 05:02:32;;;;;;;21.02;16.70;;;;;;;;;;4997789;28;20270;-70
2022/09/13 05:04:57;;;;;;;24.55;19.73;;;;;;;;;;5011362;28;20589;-70
2022/09/13 05:07:23;;;;;;;21.38;18.17;;;;;;;;;;5009929;28;20249;-70
2022/09/13 05:09:48;;;;;;;24.75;18.50;;;;;;;;;;5008282;28;20175;-69
2022/09/13 05:12:13;;;;;;;24.08;17.85;;;;;;;;;;5005980;28;20178;-71
2022/09/13 05:14:38;;;;;;;21.60;17.80;;;;;;;;;;5012252;28;20178;-71
2022/09/13 05:17:04;;;;;;;23.95;19.40;;;;;;;;;;4996813;28;20984;-71
2022/09/13 05:19:29;;;;;;;24.70;20.60;;;;;;;;;;4998868;28;20185;-71
2022/09/13 05:21:54;;;;;;;24.52;18.80;;;;;;;;;;4987163;28;20711;-71
2022/09/13 05:24:19;;;;;;;25.50;19.13;;;;;;;;;;5009944;28;20224;-72
2022/09/13 05:26:44;;;;;;;23.25;18.33;;;;;;;;;;5019596;28;20515;-71
2022/09/13 05:29:10;;;;;;;22.90;19.40;;;;;;;;;;5009082;28;20250;-71
2022/09/13 05:31:36;;;;;;;25.87;20.00;;;;;;;;;;5009777;28;20701;-71
2022/09/13 05:34:04;;;;;;;23.08;18.77;;;;;;;;;;5010832;28;20411;-72
2022/09/13 05:36:29;;;;;;;24.92;19.77;;;;;;;;;;5001995;28;20684;-73
2022/09/13 05:38:54;;;;;;;22.70;18.95;;;;;;;;;;5007141;28;20194;-72
2022/09/13 05:41:20;;;;;;;19.40;17.25;;;;;;;;;;5015387;28;20692;-72
2022/09/13 05:43:45;;;;;;;25.48;18.52;;;;;;;;;;5017083;28;20198;-71
2022/09/13 05:46:15;;;;;;;27.95;18.10;;;;;;;;;;5014921;28;20611;-71
2022/09/13 05:48:40;;;;;;;20.27;15.90;;;;;;;;;;5009002;28;20183;-71
2022/09/13 05:51:07;;;;;;;22.30;17.33;;;;;;;;;;5013047;28;20505;-70
2022/09/13 05:53:33;;;;;;;22.88;16.92;;;;;;;;;;5016757;28;20191;-71
2022/09/13 05:55:58;;;;;;;21.67;16.98;;;;;;;;;;5010465;28;20241;-70
2022/09/13 05:58:23;;;;;;;20.77;16.00;;;;;;;;;;5019985;28;20190;-73
2022/09/13 06:00:55;;;;;;;20.00;15.80;;;;;;;;;;5006801;28;20199;-73
2022/09/13 06:03:21;;;;;;;21.20;16.95;;;;;;;;;;5013247;28;21075;-70
2022/09/13 06:05:46;;;;;;;18.30;15.85;;;;;;;;;;5024330;28;20182;-71
2022/09/13 06:08:11;;;;;;;18.97;14.13;;;;;;;;;;5014615;28;20614;-71
2022/09/13 06:10:36;;;;;;;18.73;15.32;;;;;;;;;;5015637;28;20528;-71
2022/09/13 06:13:02;;;;;;;19.43;15.93;;;;;;;;;;5016353;28;20179;-72
2022/09/13 06:15:27;;;;;;;18.47;14.90;;;;;;;;;;5016310;28;20409;-71
2022/09/13 06:17:52;;;;;;;20.73;15.90;;;;;;;;;;5016216;28;20455;-71
2022/09/13 06:20:17;;;;;;;21.23;16.07;;;;;;;;;;5001116;28;20449;-71
2022/09/13 06:22:42;;;;;;;16.33;12.83;;;;;;;;;;5015661;28;20969;-71
2022/09/13 06:25:08;;;;;;;18.43;15.23;;;;;;;;;;5014025;28;20685;-71
2022/09/13 06:27:33;;;;;;;22.02;14.73;;;;;;;;;;5021160;28;20428;-71
2022/09/13 06:29:58;;;;;;;18.70;16.42;;;;;;;;;;5016824;28;20202;-71
2022/09/13 06:32:24;;;;;;;20.60;15.50;;;;;;;;;;5025210;28;20606;-71
2022/09/13 06:34:49;;;;;;;19.73;15.38;;;;;;;;;;5016828;28;20260;-72
2022/09/13 06:37:14;;;;;;;18.10;15.63;;;;;;;;;;5003577;28;20179;-71
2022/09/13 06:39:40;;;;;;;18.13;15.50;;;;;;;;;;5012552;28;20179;-72
2022/09/13 06:42:05;;;;;;;19.40;15.15;;;;;;;;;;5013455;28;20432;-71
2022/09/13 06:44:30;;;;;;;21.48;15.65;;;;;;;;;;5015373;28;20239;-71
2022/09/13 06:46:56;;;;;;;18.23;15.65;;;;;;;;;;4998433;28;20183;-71
2022/09/13 06:49:21;;;;;;;19.57;15.27;;;;;;;;;;5011408;28;20179;-71
2022/09/13 06:51:46;;;;;;;17.23;15.38;;;;;;;;;;5011687;28;20472;-71
2022/09/13 06:54:11;;;;;;;18.75;15.73;;;;;;;;;;5006390;28;20179;-72
2022/09/13 06:56:36;;;;;;;18.43;15.70;;;;;;;;;;5018481;28;20201;-72
2022/09/13 06:59:03;;;;;;;17.67;14.65;;;;;;;;;;5011987;28;20790;-71
2022/09/13 07:01:30;;;;;;;16.60;13.70;;;;;;;;;;5010224;28;20215;-72
2022/09/13 07:03:58;;;;;;;19.30;14.43;;;;;;;;;;5014247;28;20680;-72
2022/09/13 07:06:25;;;;;;;21.40;15.82;;;;;;;;;;5009276;28;20204;-71
2022/09/13 07:08:51;;;;;;;18.25;15.48;;;;;;;;;;5011529;28;20190;-71
2022/09/13 07:11:17;;;;;;;18.95;16.23;;;;;;;;;;5010613;28;20206;-71
2022/09/13 07:13:47;;;;;;;21.98;16.48;;;;;;;;;;5012805;28;20225;-71
2022/09/13 07:16:12;;;;;;;20.02;15.77;;;;;;;;;;5026480;28;20563;-71
2022/09/13 07:18:37;;;;;;;18.13;15.20;;;;;;;;;;5020847;28;20183;-71
2022/09/13 07:21:04;;;;;;;18.98;16.08;;;;;;;;;;5020678;28;20551;-71
2022/09/13 07:23:30;;;;;;;16.30;14.55;;;;;;;;;;5012746;28;20206;-71
2022/09/13 07:26:00;;;;;;;17.80;15.65;;;;;;;;;;5019899;28;20183;-71
2022/09/13 07:28:26;;;;;;;15.77;13.88;;;;;;;;;;5018568;28;20210;-71
2022/09/13 07:30:51;;;;;;;18.27;15.52;;;;;;;;;;5013446;28;20229;-71
2022/09/13 07:33:19;;;;;;;17.40;14.20;;;;;;;;;;5004963;28;20556;-71
2022/09/13 07:35:45;;;;;;;17.77;15.35;;;;;;;;;;5006249;28;20965;-71
2022/09/13 07:38:10;;;;;;;16.25;13.27;;;;;;;;;;5010403;28;20195;-71
2022/09/13 07:40:36;;;;;;;18.10;13.20;;;;;;;;;;5010108;28;20206;-72
2022/09/13 07:43:01;;;;;;;15.73;13.00;;;;;;;;;;4992584;28;20490;-71
2022/09/13 07:45:27;;;;;;;17.25;13.50;;;;;;;;;;5005391;28;20246;-71
2022/09/13 07:47:53;;;;;;;17.02;13.13;;;;;;;;;;5020417;28;20174;-72
2022/09/13 07:50:18;;;;;;;15.75;12.45;;;;;;;;;;5009288;28;20766;-70
2022/09/13 07:52:43;;;;;;;15.70;13.20;;;;;;;;;;5010851;28;20572;-71
2022/09/13 07:55:08;;;;;;;14.27;11.75;;;;;;;;;;5009828;28;20424;-73
2022/09/13 07:57:34;;;;;;;10.80;9.70;;;;;;;;;;5008315;28;20183;-70
2022/09/13 07:59:59;;;;;;;11.07;8.97;;;;;;;;;;5001286;28;20222;-71
2022/09/13 08:02:24;;;;;;;11.98;8.35;;;;;;;;;;5009669;28;20423;-71
2022/09/13 08:04:49;;;;;;;12.18;8.77;;;;;;;;;;5008866;28;20223;-71
2022/09/13 08:07:15;;;;;;;8.75;7.95;;;;;;;;;;5007145;28;20186;-72
2022/09/13 08:09:40;;;;;;;11.32;8.45;;;;;;;;;;5015637;28;20170;-71
2022/09/13 08:12:05;;;;;;;7.67;6.87;;;;;;;;;;5010652;28;20688;-71
2022/09/13 08:14:30;;;;;;;11.05;8.73;;;;;;;;;;5014222;28;20428;-71
2022/09/13 08:16:55;;;;;;;10.83;8.83;;;;;;;;;;4992568;28;21523;-71
2022/09/13 08:19:21;;;;;;;9.23;8.17;;;;;;;;;;5005719;28;20878;-71
2022/09/13 08:21:46;;;;;;;9.20;7.77;;;;;;;;;;5014745;28;20452;-70
2022/09/13 08:24:21;;;;;;;9.25;8.35;;;;;;;;;;5011298;28;20591;-70
2022/09/13 08:26:46;;;;;;;8.43;7.43;;;;;;;;;;5010623;28;20174;-70
2022/09/13 08:29:12;;;;;;;11.63;8.60;;;;;;;;;;5013746;28;20525;-70
2022/09/13 08:31:37;;;;;;;8.68;7.20;;;;;;;;;;5009422;28;20198;-71
2022/09/13 08:34:02;;;;;;;7.60;6.33;;;;;;;;;;5011149;28;20175;-71
2022/09/13 08:36:27;;;;;;;7.32;6.63;;;;;;;;;;5016452;28;20439;-71
2022/09/13 08:38:54;;;;;;;6.90;5.97;;;;;;;;;;5014815;28;20187;-71
2022/09/13 08:41:20;;;;;;;7.80;6.07;;;;;;;;;;4992389;28;20257;-72
2022/09/13 08:43:50;;;;;;;8.02;6.30;;;;;;;;;;5007975;28;20210;-71
2022/09/13 08:46:15;;;;;;;9.45;6.40;;;;;;;;;;5005642;28;20187;-71
2022/09/13 08:48:43;;;;;;;7.30;5.65;;;;;;;;;;5006616;28;20607;-71
2022/09/13 08:51:14;;;;;;;6.30;5.70;;;;;;;;;;5012335;28;20198;-71
2022/09/13 08:53:44;;;;;;;6.55;5.78;;;;;;;;;;5012149;28;20265;-71
2022/09/13 08:56:10;;;;;;;5.75;4.90;;;;;;;;;;5003710;28;21033;-70
2022/09/13 08:58:54;;;;;;;8.27;4.82;;;;;;;;;;5008656;28;20214;-71
2022/09/13 09:01:20;;;;;;;5.90;4.90;;;;;;;;;;5007705;28;20723;-71
2022/09/13 09:03:53;;;;;;;5.18;4.30;;;;;;;;;;5009733;28;20237;-71
2022/09/13 09:06:19;;;;;;;5.35;3.80;;;;;;;;;;5007103;28;22199;-71
2022/09/13 09:08:51;;;;;;;3.75;3.13;;;;;;;;;;5007443;28;20198;-70
2022/09/13 09:11:48;;;;;;;3.45;2.67;;;;;;;;;;5003378;28;20253;-71
2022/09/13 09:14:16;;;;;;;3.20;2.83;;;;;;;;;;4964818;28;20672;-71
2022/09/13 09:16:52;;;;;;;3.15;2.85;;;;;;;;;;5014925;28;20170;-70
2022/09/13 09:19:20;;;;;;;4.65;2.53;;;;;;;;;;5010789;28;20267;-72
2022/09/13 09:21:48;;;;;;;3.95;3.33;;;;;;;;;;5007265;28;20209;-71
2022/09/13 09:24:17;;;;;;;4.78;2.65;;;;;;;;;;5014896;28;20206;-71
2022/09/13 09:26:43;;;;;;;5.28;2.03;;;;;;;;;;5013107;28;20177;-71
2022/09/13 09:29:19;;;;;;;4.57;2.57;;;;;;;;;;5009711;28;20245;-70
2022/09/13 09:31:53;;;;;;;2.22;1.88;;;;;;;;;;5012107;28;20454;-71
2022/09/13 09:34:41;;;;;;;3.85;2.03;;;;;;;;;;5012936;28;20225;-71
2022/09/13 09:37:15;;;;;;;2.10;1.60;;;;;;;;;;5019693;28;20189;-70
2022/09/13 09:39:41;;;;;;;3.70;1.90;;;;;;;;;;5015506;28;20616;-70
2022/09/13 09:42:12;;;;;;;2.80;1.73;;;;;;;;;;5018017;28;20183;-71
2022/09/13 09:44:38;;;;;;;2.88;1.52;;;;;;;;;;5011347;28;20215;-71
2022/09/13 09:47:10;;;;;;;3.70;1.40;;;;;;;;;;5013366;28;20183;-72
2022/09/13 09:52:28;;;;;;;2.95;1.40;;;;;;;;;;5013678;28;20182;-71
2022/09/13 09:54:56;;;;;;;2.10;1.27;;;;;;;;;;5013846;28;20183;-71
2022/09/13 09:57:41;;;;;;;2.65;1.30;;;;;;;;;;5012933;28;20199;-71
2022/09/13 10:00:09;;;;;;;2.78;1.83;;;;;;;;;;5012516;28;20684;-72
2022/09/13 10:02:36;;;;;;;1.98;1.30;;;;;;;;;;4994550;28;20186;-71
2022/09/13 10:05:01;;;;;;;1.50;1.40;;;;;;;;;;5009151;28;20175;-71
2022/09/13 10:07:32;;;;;;;3.75;1.42;;;;;;;;;;5014376;28;20655;-72
2022/09/13 10:09:58;;;;;;;1.92;1.10;;;;;;;;;;4991138;28;20213;-72
2022/09/13 10:12:28;;;;;;;6.03;1.38;;;;;;;;;;4993613;28;20179;-71
2022/09/13 10:15:01;;;;;;;1.95;1.70;;;;;;;;;;5016482;28;20744;-71
2022/09/13 10:17:27;;;;;;;3.42;1.00;;;;;;;;;;5006806;28;20241;-71
2022/09/13 10:20:00;;;;;;;1.33;1.20;;;;;;;;;;5018710;28;20206;-71
2022/09/13 10:22:26;;;;;;;2.42;1.20;;;;;;;;;;4999577;28;20189;-71
2022/09/13 10:24:51;;;;;;;2.42;1.80;;;;;;;;;;5014452;28;20206;-71
2022/09/13 10:27:25;;;;;;;0.88;0.88;;;;;;;;;;5022246;28;20178;-72
2022/09/13 10:29:53;;;;;;;2.60;1.00;;;;;;;;;;5012460;28;20183;-70
2022/09/13 10:32:18;;;;;;;3.15;1.55;;;;;;;;;;5011132;28;20818;-71
2022/09/13 10:34:45;;;;;;;1.33;0.98;;;;;;;;;;5009220;28;20193;-71
2022/09/13 10:37:10;;;;;;;1.08;1.00;;;;;;;;;;5003404;28;20660;-71
2022/09/13 10:39:35;;;;;;;2.27;1.37;;;;;;;;;;5019468;28;20311;-71
2022/09/13 10:42:03;;;;;;;2.55;1.48;;;;;;;;;;5013027;28;20293;-71
2022/09/13 10:44:39;;;;;;;1.50;1.17;;;;;;;;;;5012861;28;20256;-71
2022/09/13 10:47:18;;;;;;;1.45;0.98;;;;;;;;;;5008440;28;20186;-71
2022/09/13 10:49:50;;;;;;;1.20;1.10;;;;;;;;;;5009012;28;20236;-71
2022/09/13 10:52:26;;;;;;;2.10;0.95;;;;;;;;;;5011315;28;20174;-71
2022/09/13 10:54:52;;;;;;;2.05;1.45;;;;;;;;;;5007067;28;20213;-71
2022/09/13 10:57:31;;;;;;;4.38;1.83;;;;;;;;;;5008932;28;20183;-73
2022/09/13 10:59:56;;;;;;;2.53;1.20;;;;;;;;;;5011970;28;20281;-71
2022/09/13 11:02:21;;;;;;;1.57;1.10;;;;;;;;;;5011070;28;20262;-71
2022/09/13 11:05:05;;;;;;;2.42;1.30;;;;;;;;;;4996001;28;20215;-71
2022/09/13 11:07:49;;;;;;;3.42;1.33;;;;;;;;;;5023295;28;20171;-71
2022/09/13 11:10:24;;;;;;;2.08;1.27;;;;;;;;;;5005724;28;20214;-73
2022/09/13 11:12:49;;;;;;;2.55;1.10;;;;;;;;;;5018797;28;20181;-71
2022/09/13 11:15:17;;;;;;;2.05;1.50;;;;;;;;;;5010122;28;20230;-71
2022/09/13 11:17:48;;;;;;;1.40;0.98;;;;;;;;;;4996134;28;20179;-71
2022/09/13 11:20:23;;;;;;;2.72;1.13;;;;;;;;;;5005326;28;20195;-71
2022/09/13 11:23:06;;;;;;;1.65;0.73;;;;;;;;;;4987198;28;20268;-71
2022/09/13 11:25:37;;;;;;;1.85;1.05;;;;;;;;;;5016957;28;20178;-71
2022/09/13 11:28:02;;;;;;;2.25;1.17;;;;;;;;;;5019736;28;20266;-71
2022/09/13 11:30:30;;;;;;;1.80;1.17;;;;;;;;;;5014057;28;20338;-70
2022/09/13 11:33:14;;;;;;;3.38;1.20;;;;;;;;;;4999850;28;20185;-72
2022/09/13 11:35:45;;;;;;;3.17;1.40;;;;;;;;;;5004813;28;20187;-71
2022/09/13 11:38:29;;;;;;;2.90;1.35;;;;;;;;;;5009676;28;20281;-73
2022/09/13 11:40:54;;;;;;;3.33;1.50;;;;;;;;;;5017821;28;20817;-71
2022/09/13 11:43:40;;;;;;;2.33;1.30;;;;;;;;;;5011000;28;20739;-71
2022/09/13 11:46:16;;;;;;;1.65;1.02;;;;;;;;;;5012079;28;20718;-71
2022/09/13 11:48:49;;;;;;;3.65;1.30;;;;;;;;;;5013212;28;20674;-72
2022/09/13 11:51:30;;;;;;;1.23;1.02;;;;;;;;;;5014340;28;20253;-71
2022/09/13 11:53:55;;;;;;;1.70;0.65;;;;;;;;;;5011426;28;20273;-72
2022/09/13 11:56:21;;;;;;;1.53;0.83;;;;;;;;;;5015042;28;20294;-71
2022/09/13 11:58:49;;;;;;;2.50;1.05;;;;;;;;;;5018982;28;20186;-72
2022/09/13 12:01:18;;;;;;;1.42;0.70;;;;;;;;;;5015107;28;20680;-72
2022/09/13 12:03:43;;;;;;;3.05;0.80;;;;;;;;;;5010373;28;20214;-71
2022/09/13 12:06:08;;;;;;;2.20;1.10;;;;;;;;;;5011599;28;20562;-71
2022/09/13 12:08:35;;;;;;;1.50;0.73;;;;;;;;;;5023363;28;20789;-71
2022/09/13 12:11:08;;;;;;;3.65;1.27;;;;;;;;;;5010255;28;20497;-72
2022/09/13 12:13:55;;;;;;;1.23;0.77;;;;;;;;;;5012488;28;20201;-71
2022/09/13 12:16:29;;;;;;;1.35;0.80;;;;;;;;;;5016110;28;20183;-71
2022/09/13 12:18:56;;;;;;;1.20;0.80;;;;;;;;;;4995242;28;20661;-72
2022/09/13 12:21:26;;;;;;;2.17;1.23;;;;;;;;;;5019393;28;20214;-71
2022/09/13 12:24:04;;;;;;;1.92;0.60;;;;;;;;;;5005590;28;20693;-71
2022/09/13 12:26:32;;;;;;;1.77;1.00;;;;;;;;;;5012962;28;20183;-71
2022/09/13 12:29:00;;;;;;;1.48;0.77;;;;;;;;;;5015008;28;20183;-71
2022/09/13 12:31:27;;;;;;;1.30;0.63;;;;;;;;;;5010621;28;20203;-71
2022/09/13 12:33:54;;;;;;;1.25;0.80;;;;;;;;;;5014277;28;20249;-71
2022/09/13 12:36:38;;;;;;;0.77;0.60;;;;;;;;;;5017114;28;20201;-71
2022/09/13 12:39:11;;;;;;;0.65;0.50;;;;;;;;;;5018135;28;20624;-71
2022/09/13 12:41:52;;;;;;;1.80;0.63;;;;;;;;;;5007477;28;20594;-71
2022/09/13 12:44:23;;;;;;;1.40;0.45;;;;;;;;;;5019334;28;20210;-73
2022/09/13 12:47:02;;;;;;;0.70;0.40;;;;;;;;;;5010073;28;20313;-71
2022/09/13 12:49:33;;;;;;;3.13;0.60;;;;;;;;;;5008438;28;20665;-72
2022/09/13 12:52:01;;;;;;;3.35;0.93;;;;;;;;;;5005866;28;20178;-71
2022/09/13 12:54:30;;;;;;;1.38;0.65;;;;;;;;;;5018312;28;20179;-71
2022/09/13 12:57:04;;;;;;;1.48;0.52;;;;;;;;;;5015102;28;20324;-72
2022/09/13 12:59:35;;;;;;;2.22;0.60;;;;;;;;;;5007959;28;20175;-71
2022/09/13 13:02:03;;;;;;;2.97;1.35;;;;;;;;;;5015346;28;20568;-71
2022/09/13 13:04:31;;;;;;;1.00;0.60;;;;;;;;;;5014878;28;20611;-71
2022/09/13 13:06:58;;;;;;;3.80;0.57;;;;;;;;;;5010287;28;20183;-71
2022/09/13 13:09:29;;;;;;;1.15;0.52;;;;;;;;;;4998745;28;20175;-71
2022/09/13 13:11:56;;;;;;;2.75;0.90;;;;;;;;;;5001976;28;20214;-72
2022/09/13 13:14:36;;;;;;;1.00;0.68;;;;;;;;;;5014594;28;20182;-72
2022/09/13 13:17:20;;;;;;;4.75;1.08;;;;;;;;;;5012024;28;20202;-72
2022/09/13 13:19:45;;;;;;;3.58;0.40;;;;;;;;;;5016279;28;20190;-72
2022/09/13 13:22:29;;;;;;;0.80;0.40;;;;;;;;;;5016410;28;20387;-71
2022/09/13 13:24:54;;;;;;;1.10;0.60;;;;;;;;;;5013060;28;20219;-71
2022/09/13 13:27:33;;;;;;;2.00;0.53;;;;;;;;;;5018081;28;20398;-71
2022/09/13 13:30:24;;;;;;;3.90;0.60;;;;;;;;;;5014710;28;20282;-71
2022/09/13 13:33:11;;;;;;;1.83;0.55;;;;;;;;;;5007719;28;20179;-71
2022/09/13 13:35:37;;;;;;;1.27;0.50;;;;;;;;;;5019490;28;20849;-71
2022/09/13 13:38:34;;;;;;;0.77;0.57;;;;;;;;;;5010232;28;20179;-71
2022/09/13 13:41:07;;;;;;;1.55;0.82;;;;;;;;;;4975737;28;20458;-71
2022/09/13 13:43:33;;;;;;;1.25;0.40;;;;;;;;;;5007774;28;20577;-71
2022/09/13 13:46:19;;;;;;;1.40;0.50;;;;;;;;;;5011738;28;20263;-71
2022/09/13 13:48:44;;;;;;;1.13;0.40;;;;;;;;;;4999416;28;20183;-71
2022/09/13 13:51:12;;;;;;;1.75;0.50;;;;;;;;;;5005164;28;20574;-71
2022/09/13 13:53:40;;;;;;;3.85;0.60;;;;;;;;;;5018916;28;20546;-71
2022/09/13 13:56:13;;;;;;;1.73;0.70;;;;;;;;;;5010101;28;20563;-71
2022/09/13 13:58:45;;;;;;;0.82;0.70;;;;;;;;;;5010661;28;20265;-71
2022/09/13 14:01:14;;;;;;;1.00;0.43;;;;;;;;;;4988936;28;20204;-71
2022/09/13 14:03:55;;;;;;;0.98;0.40;;;;;;;;;;5005645;28;20269;-71
2022/09/13 14:06:29;;;;;;;1.35;0.40;;;;;;;;;;5016289;28;20178;-71
2022/09/13 14:08:57;;;;;;;1.63;0.40;;;;;;;;;;5012621;28;20258;-72
2022/09/13 14:11:38;;;;;;;0.98;0.40;;;;;;;;;;5017480;28;20218;-72
2022/09/13 14:14:41;;;;;;;3.30;0.55;;;;;;;;;;5017018;28;20185;-71
2022/09/13 14:17:09;;;;;;;1.08;0.30;;;;;;;;;;4969215;28;20774;-70
2022/09/13 14:19:39;;;;;;;1.35;0.60;;;;;;;;;;4974072;28;20192;-71
2022/09/13 14:22:24;;;;;;;1.27;0.50;;;;;;;;;;4991075;28;20199;-71
2022/09/13 14:24:50;;;;;;;2.33;0.60;;;;;;;;;;5019033;28;20213;-71
2022/09/13 14:27:17;;;;;;;1.20;0.60;;;;;;;;;;5011615;28;20644;-72
2022/09/13 14:29:43;;;;;;;2.83;0.70;;;;;;;;;;5011455;28;20183;-71
2022/09/13 14:32:11;;;;;;;1.27;0.50;;;;;;;;;;5014458;28;20233;-71
2022/09/13 14:34:37;;;;;;;1.65;0.60;;;;;;;;;;5011988;28;20554;-71
2022/09/13 14:37:04;;;;;;;1.98;0.60;;;;;;;;;;5013396;28;20616;-71
2022/09/13 14:39:29;;;;;;;2.85;0.70;;;;;;;;;;5011311;28;20229;-71
2022/09/13 14:41:59;;;;;;;2.13;0.60;;;;;;;;;;5017692;28;20245;-71
2022/09/13 14:44:25;;;;;;;1.88;0.70;;;;;;;;;;5013001;28;20277;-71